createdAt,value
2022-10-23T00:01:12.469Z,7.60
2022-10-23T00:03:38.970Z,8.00
2022-10-23T00:06:05.712Z,7.70
2022-10-23T00:08:32.279Z,7.90
2022-10-23T00:10:58.860Z,6.50
2022-10-23T00:13:25.593Z,6.40
2022-10-23T00:18:19.275Z,3.70
2022-10-23T00:20:45.849Z,3.40
2022-10-23T00:23:12.604Z,2.80
2022-10-23T00:25:39.192Z,2.00
2022-10-23T00:28:05.932Z,1.90
2022-10-23T00:30:32.503Z,2.20
2022-10-23T00:32:59.276Z,2.40
2022-10-23T00:35:25.855Z,2.20
2022-10-23T00:37:52.529Z,1.90
2022-10-23T00:40:19.745Z,2.20
2022-10-23T00:42:46.353Z,1.90
2022-10-23T00:45:21.805Z,2.20
2022-10-23T00:47:49.409Z,1.80
2022-10-23T00:50:17.349Z,1.90
2022-10-23T00:52:48.474Z,2.30
2022-10-23T00:55:16.860Z,2.40
2022-10-23T00:57:46.046Z,2.20
2022-10-23T01:00:16.677Z,2.20
2022-10-23T01:02:43.594Z,2.00
2022-10-23T01:05:10.875Z,1.90
2022-10-23T01:07:50.299Z,1.80
2022-10-23T01:10:31.526Z,1.70
2022-10-23T01:13:19.316Z,2.10
2022-10-23T01:15:57.328Z,2.40
2022-10-23T01:18:31.361Z,2.50
2022-10-23T01:21:21.680Z,2.50
2022-10-23T01:24:24.572Z,2.50
2022-10-23T01:27:14.873Z,2.40
2022-10-23T01:29:49.224Z,2.60
2022-10-23T01:32:28.596Z,2.40
2022-10-23T01:35:08.350Z,3.10
2022-10-23T01:37:47.845Z,2.90
2022-10-23T01:40:24.644Z,3.20
2022-10-23T01:45:33.690Z,3.10
2022-10-23T01:48:02.453Z,3.40
2022-10-23T01:50:31.370Z,4.20
2022-10-23T01:53:03.975Z,3.80
2022-10-23T01:55:32.518Z,4.40
2022-10-23T01:58:03.912Z,4.00
2022-10-23T02:00:40.040Z,3.90
2022-10-23T02:03:08.628Z,4.60
2022-10-23T02:05:35.574Z,4.00
2022-10-23T02:08:03.038Z,4.60
2022-10-23T02:10:39.336Z,5.20
2022-10-23T02:13:23.949Z,5.00
2022-10-23T02:16:05.403Z,5.30
2022-10-23T02:19:07.869Z,5.00
2022-10-23T02:21:53.454Z,5.40
2022-10-23T02:24:30.967Z,5.00
2022-10-23T02:27:03.614Z,4.90
2022-10-23T02:29:38.266Z,5.00
2022-10-23T02:32:08.698Z,4.50
2022-10-23T02:34:35.618Z,4.90
2022-10-23T02:37:02.937Z,4.30
2022-10-23T02:39:29.904Z,5.00
2022-10-23T02:42:14.314Z,5.40
2022-10-23T02:44:55.266Z,4.70
2022-10-23T02:47:54.744Z,4.40
2022-10-23T02:50:30.932Z,4.80
2022-10-23T02:53:17.723Z,3.60
2022-10-23T02:56:01.532Z,4.20
2022-10-23T02:58:36.007Z,4.10
2022-10-23T03:01:08.776Z,4.70
2022-10-23T03:03:41.959Z,4.90
2022-10-23T03:06:09.103Z,4.70
2022-10-23T03:08:49.457Z,4.40
2022-10-23T03:11:18.247Z,4.60
2022-10-23T03:13:44.921Z,4.40
2022-10-23T03:16:14.094Z,4.60
2022-10-23T03:18:41.022Z,4.70
2022-10-23T03:21:08.291Z,4.60
2022-10-23T03:23:35.115Z,4.90
2022-10-23T03:26:02.570Z,5.20
2022-10-23T03:28:34.887Z,5.20
2022-10-23T03:31:02.610Z,5.30
2022-10-23T03:33:31.287Z,4.90
2022-10-23T03:36:05.564Z,5.00
2022-10-23T03:38:32.559Z,4.50
2022-10-23T03:40:59.113Z,3.60
2022-10-23T03:43:27.994Z,4.50
2022-10-23T03:45:56.919Z,5.50
2022-10-23T03:48:25.407Z,5.10
2022-10-23T03:50:52.159Z,5.10
2022-10-23T03:53:19.038Z,5.50
2022-10-23T03:55:45.938Z,4.50
2022-10-23T03:58:12.542Z,4.40
2022-10-23T04:00:39.272Z,5.10
2022-10-23T04:03:06.601Z,5.00
2022-10-23T04:05:37.137Z,5.30
2022-10-23T04:08:03.888Z,5.30
2022-10-23T04:10:32.583Z,4.20
2022-10-23T04:12:59.342Z,4.60
2022-10-23T04:15:27.485Z,4.60
2022-10-23T04:17:54.409Z,4.60
2022-10-23T04:20:21.179Z,4.60
2022-10-23T04:22:47.830Z,4.60
2022-10-23T04:25:15.959Z,4.70
2022-10-23T04:27:43.117Z,4.90
2022-10-23T04:30:11.398Z,4.50
2022-10-23T04:32:38.374Z,4.40
2022-10-23T04:35:06.005Z,4.30
2022-10-23T04:37:32.554Z,4.00
2022-10-23T04:39:59.863Z,4.30
2022-10-23T04:44:54.220Z,4.30
2022-10-23T04:47:20.776Z,4.60
2022-10-23T04:49:56.203Z,4.50
2022-10-23T04:52:33.084Z,4.80
2022-10-23T04:55:20.299Z,4.70
2022-10-23T04:58:06.793Z,4.70
2022-10-23T05:00:33.599Z,4.50
2022-10-23T05:03:00.897Z,4.90
2022-10-23T05:05:33.671Z,3.90
2022-10-23T05:08:06.361Z,4.20
2022-10-23T05:10:42.721Z,4.00
2022-10-23T05:13:12.916Z,4.60
2022-10-23T05:15:40.376Z,4.50
2022-10-23T05:18:14.514Z,4.30
2022-10-23T05:20:42.157Z,4.40
2022-10-23T05:23:12.662Z,4.50
2022-10-23T05:25:40.439Z,4.50
2022-10-23T05:28:15.127Z,4.50
2022-10-23T05:30:42.269Z,4.20
2022-10-23T05:33:11.076Z,4.40
2022-10-23T05:35:43.738Z,4.10
2022-10-23T05:38:12.518Z,3.80
2022-10-23T05:43:08.363Z,4.70
2022-10-23T05:45:46.467Z,4.50
2022-10-23T05:48:34.639Z,4.10
2022-10-23T05:51:21.569Z,3.90
2022-10-23T05:54:00.914Z,3.80
2022-10-23T05:56:32.664Z,3.60
2022-10-23T05:59:09.652Z,4.20
2022-10-23T06:01:47.749Z,4.20
2022-10-23T06:04:18.185Z,4.40
2022-10-23T06:06:56.376Z,4.20
2022-10-23T06:09:23.134Z,4.20
2022-10-23T06:11:53.447Z,4.00
2022-10-23T06:14:20.737Z,3.90
2022-10-23T06:16:48.269Z,3.70
2022-10-23T06:19:14.787Z,3.20
2022-10-23T06:21:41.640Z,3.80
2022-10-23T06:24:09.493Z,4.00
2022-10-23T06:26:48.565Z,4.00
2022-10-23T06:29:20.696Z,3.50
2022-10-23T06:31:47.438Z,3.70
2022-10-23T06:34:14.183Z,3.60
2022-10-23T06:36:41.431Z,3.70
2022-10-23T06:39:27.283Z,4.00
2022-10-23T06:42:04.382Z,5.00
2022-10-23T06:44:50.830Z,3.70
2022-10-23T06:47:28.319Z,3.70
2022-10-23T06:50:15.649Z,3.80
2022-10-23T06:52:47.801Z,3.90
2022-10-23T06:55:17.716Z,3.30
2022-10-23T06:57:44.841Z,3.30
2022-10-23T07:00:12.693Z,3.00
2022-10-23T07:02:45.751Z,3.20
2022-10-23T07:05:13.892Z,2.70
2022-10-23T07:07:41.227Z,2.80
2022-10-23T07:10:09.507Z,2.70
2022-10-23T07:12:41.620Z,2.60
2022-10-23T07:15:23.809Z,2.90
2022-10-23T07:17:50.588Z,2.70
2022-10-23T07:20:17.488Z,2.50
2022-10-23T07:22:52.369Z,2.50
2022-10-23T07:25:26.730Z,2.60
2022-10-23T07:27:55.131Z,2.60
2022-10-23T07:30:22.358Z,2.60
2022-10-23T07:32:51.703Z,2.60
2022-10-23T07:35:39.436Z,2.70
2022-10-23T07:38:15.257Z,2.50
2022-10-23T07:40:44.948Z,2.60
2022-10-23T07:43:13.895Z,2.70
2022-10-23T07:45:40.694Z,2.90
2022-10-23T07:48:14.799Z,2.70
2022-10-23T07:51:02.372Z,2.90
2022-10-23T07:53:30.405Z,2.90
2022-10-23T07:56:04.491Z,2.50
2022-10-23T07:58:53.520Z,2.20
2022-10-23T08:01:29.539Z,2.40
2022-10-23T08:03:56.223Z,2.50
2022-10-23T08:06:23.270Z,2.30
2022-10-23T08:08:50.197Z,2.40
2022-10-23T08:11:24.165Z,2.40
2022-10-23T08:13:53.778Z,2.60
2022-10-23T08:16:21.735Z,2.10
2022-10-23T08:19:08.426Z,1.90
2022-10-23T08:21:37.711Z,2.00
2022-10-23T08:24:04.942Z,2.10
2022-10-23T08:26:31.959Z,2.10
2022-10-23T08:28:59.862Z,2.30
2022-10-23T08:31:27.628Z,2.20
2022-10-23T08:34:09.738Z,1.80
2022-10-23T08:36:38.601Z,2.30
2022-10-23T08:39:06.977Z,2.00
2022-10-23T08:41:42.123Z,1.60
2022-10-23T08:44:29.087Z,1.60
2022-10-23T08:47:11.938Z,1.50
2022-10-23T08:49:56.023Z,1.60
2022-10-23T08:52:38.835Z,2.00
2022-10-23T08:55:29.416Z,1.50
2022-10-23T08:58:04.983Z,1.50
2022-10-23T09:00:32.328Z,1.60
2022-10-23T09:03:04.983Z,1.60
2022-10-23T09:05:45.015Z,1.80
2022-10-23T09:08:25.196Z,1.90
2022-10-23T09:11:02.114Z,1.70
2022-10-23T09:14:04.985Z,2.00
2022-10-23T09:17:05.155Z,1.80
2022-10-23T09:19:32.519Z,1.90
2022-10-23T09:21:59.806Z,2.00
2022-10-23T09:24:30.926Z,1.90
2022-10-23T09:26:59.978Z,2.20
2022-10-23T09:29:32.427Z,1.60
2022-10-23T09:32:00.818Z,1.80
2022-10-23T09:34:30.257Z,2.00
2022-10-23T09:37:00.588Z,2.00
2022-10-23T09:39:31.618Z,1.80
2022-10-23T09:42:01.895Z,2.10
2022-10-23T09:44:31.676Z,2.10
2022-10-23T09:47:11.457Z,2.20
2022-10-23T09:49:46.161Z,1.50
2022-10-23T09:52:35.711Z,1.80
2022-10-23T09:55:20.120Z,2.60
2022-10-23T09:57:47.516Z,2.00
2022-10-23T10:00:19.464Z,2.10
2022-10-23T10:03:00.220Z,2.70
2022-10-23T10:05:55.292Z,1.70
2022-10-23T10:08:34.735Z,1.80
2022-10-23T10:11:22.899Z,1.70
2022-10-23T10:14:04.748Z,1.90
2022-10-23T10:16:53.865Z,1.70
2022-10-23T10:19:38.940Z,1.50
2022-10-23T10:22:26.483Z,1.20
2022-10-23T10:25:29.307Z,1.40
2022-10-23T10:28:19.290Z,1.10
2022-10-23T10:31:09.928Z,1.20
2022-10-23T10:33:55.452Z,1.30
2022-10-23T10:36:41.315Z,1.40
2022-10-23T10:39:24.540Z,1.60
2022-10-23T10:42:06.015Z,1.20
2022-10-23T10:44:48.406Z,1.40
2022-10-23T10:47:25.500Z,1.40
2022-10-23T10:50:06.816Z,1.50
2022-10-23T10:52:58.309Z,1.60
2022-10-23T10:55:44.420Z,1.60
2022-10-23T10:58:27.508Z,1.80
2022-10-23T11:00:58.501Z,1.70
2022-10-23T11:03:39.015Z,1.70
2022-10-23T11:06:14.484Z,1.90
2022-10-23T11:08:56.193Z,2.00
2022-10-23T11:11:35.695Z,2.10
2022-10-23T11:14:03.035Z,1.70
2022-10-23T11:16:41.257Z,1.70
2022-10-23T11:19:33.496Z,2.00
2022-10-23T11:22:09.697Z,1.60
2022-10-23T11:27:44.565Z,1.80
2022-10-23T11:30:27.424Z,1.90
2022-10-23T11:33:30.443Z,1.80
2022-10-23T11:36:06.425Z,1.70
2022-10-23T11:38:36.103Z,1.80
2022-10-23T11:41:06.312Z,1.60
2022-10-23T11:43:46.373Z,2.00
2022-10-23T11:46:28.748Z,1.70
2022-10-23T11:48:58.245Z,2.10
2022-10-23T11:51:35.614Z,1.60
2022-10-23T11:54:23.684Z,1.60
2022-10-23T11:57:16.489Z,1.80
2022-10-23T11:59:56.441Z,1.80
2022-10-23T12:02:37.685Z,1.60
2022-10-23T12:05:17.229Z,1.50
2022-10-23T12:07:45.612Z,1.30
2022-10-23T12:10:26.651Z,1.50
2022-10-23T12:12:59.370Z,1.50
2022-10-23T12:15:27.064Z,1.90
2022-10-23T12:18:07.202Z,1.30
2022-10-23T12:20:43.820Z,1.70
2022-10-23T12:23:38.449Z,1.80
2022-10-23T12:26:25.882Z,1.70
2022-10-23T12:29:16.930Z,1.60
2022-10-23T12:32:07.238Z,1.50
2022-10-23T12:34:49.826Z,1.60
2022-10-23T12:37:39.234Z,1.60
2022-10-23T12:40:08.058Z,1.70
2022-10-23T12:42:35.197Z,1.60
2022-10-23T12:45:23.195Z,1.70
2022-10-23T12:47:51.279Z,1.60
2022-10-23T12:50:20.876Z,1.60
2022-10-23T12:52:53.835Z,1.60
2022-10-23T12:55:21.986Z,1.70
2022-10-23T12:57:49.303Z,1.40
2022-10-23T13:00:19.872Z,1.30
2022-10-23T13:03:04.554Z,1.70
2022-10-23T13:05:31.958Z,2.50
2022-10-23T13:08:01.404Z,2.40
2022-10-23T13:10:38.857Z,3.10
2022-10-23T13:13:07.689Z,2.50
2022-10-23T13:15:43.515Z,2.70
2022-10-23T13:18:13.576Z,2.30
2022-10-23T13:20:55.231Z,3.00
2022-10-23T13:23:31.438Z,3.10
2022-10-23T13:28:42.025Z,2.80
2022-10-23T13:31:31.573Z,2.90
2022-10-23T13:34:06.730Z,2.80
2022-10-23T13:36:36.239Z,2.80
2022-10-23T13:39:14.499Z,2.60
2022-10-23T13:41:45.527Z,2.30
2022-10-23T13:44:14.491Z,2.40
2022-10-23T13:46:41.676Z,3.00
2022-10-23T13:49:08.876Z,3.30
2022-10-23T13:51:42.599Z,3.30
2022-10-23T13:54:15.113Z,3.10
2022-10-23T13:56:41.795Z,6.70
2022-10-23T13:59:10.589Z,3.80
2022-10-23T14:01:37.706Z,3.50
2022-10-23T14:04:05.498Z,3.70
2022-10-23T14:06:33.164Z,4.30
2022-10-23T14:09:02.567Z,3.60
2022-10-23T14:11:29.099Z,3.80
2022-10-23T14:13:55.547Z,3.70
2022-10-23T14:16:23.263Z,3.30
2022-10-23T14:18:49.851Z,3.90
2022-10-23T14:21:19.426Z,3.20
2022-10-23T14:23:47.308Z,3.80
2022-10-23T14:26:20.220Z,4.00
2022-10-23T14:28:46.951Z,4.00
2022-10-23T14:31:16.231Z,4.20
2022-10-23T14:33:44.403Z,4.40
2022-10-23T14:36:12.240Z,4.20
2022-10-23T14:38:38.996Z,4.40
2022-10-23T14:41:14.717Z,4.20
2022-10-23T14:43:42.534Z,4.40
2022-10-23T14:46:14.447Z,4.20
2022-10-23T14:48:45.477Z,3.90
2022-10-23T14:51:22.115Z,5.10
2022-10-23T14:53:58.710Z,4.60
2022-10-23T14:56:27.003Z,4.70
2022-10-23T14:58:54.599Z,4.50
2022-10-23T15:01:21.393Z,4.90
2022-10-23T15:03:54.328Z,4.60
2022-10-23T15:06:21.107Z,4.90
2022-10-23T15:08:50.599Z,5.40
2022-10-23T15:11:17.611Z,6.90
2022-10-23T15:13:44.303Z,6.90
2022-10-23T15:16:11.540Z,7.10
2022-10-23T15:21:06.652Z,7.80
2022-10-23T15:23:34.841Z,7.90
2022-10-23T15:26:05.088Z,8.80
2022-10-23T15:28:34.007Z,8.20
2022-10-23T15:31:01.535Z,8.30
2022-10-23T15:33:28.374Z,8.30
2022-10-23T15:35:55.907Z,8.20
2022-10-23T15:38:23.965Z,7.50
2022-10-23T15:40:53.028Z,8.20
2022-10-23T15:43:19.670Z,8.40
2022-10-23T15:45:47.023Z,8.30
2022-10-23T15:48:13.592Z,8.10
2022-10-23T15:50:40.429Z,8.10
2022-10-23T15:53:07.069Z,8.00
2022-10-23T15:55:33.706Z,8.20
2022-10-23T15:58:09.699Z,8.50
2022-10-23T16:00:37.522Z,9.10
2022-10-23T16:03:05.300Z,9.30
2022-10-23T16:05:31.921Z,8.60
2022-10-23T16:07:58.560Z,8.80
2022-10-23T16:10:25.187Z,8.70
2022-10-23T16:12:51.949Z,9.50
2022-10-23T16:15:18.563Z,9.30
2022-10-23T16:17:45.642Z,9.10
2022-10-23T16:20:15.473Z,10.00
2022-10-23T16:22:44.198Z,9.70
2022-10-23T16:25:11.650Z,9.90
2022-10-23T16:27:38.237Z,9.60
2022-10-23T16:30:08.405Z,10.60
2022-10-23T16:32:35.859Z,9.80
2022-10-23T16:35:02.406Z,10.40
2022-10-23T16:37:38.214Z,10.90
2022-10-23T16:40:10.404Z,10.90
2022-10-23T16:42:47.938Z,11.80
2022-10-23T16:45:23.789Z,11.40
2022-10-23T16:47:50.497Z,11.30
2022-10-23T16:50:17.187Z,11.40
2022-10-23T16:52:44.202Z,11.90
2022-10-23T16:55:11.067Z,11.70
2022-10-23T16:57:37.508Z,11.80
2022-10-23T17:00:05.378Z,11.40
2022-10-23T17:02:34.652Z,10.60
2022-10-23T17:05:01.181Z,9.90
2022-10-23T17:07:27.644Z,9.90
2022-10-23T17:09:54.098Z,9.90
2022-10-23T17:12:20.504Z,9.80
2022-10-23T17:14:47.069Z,9.00
2022-10-23T17:17:13.671Z,9.80
2022-10-23T17:19:45.482Z,10.60
2022-10-23T17:22:13.705Z,11.00
2022-10-23T17:24:42.150Z,10.80
2022-10-23T17:27:09.204Z,12.10
2022-10-23T17:29:35.834Z,12.40
2022-10-23T17:32:03.408Z,12.10
2022-10-23T17:34:29.969Z,12.80
2022-10-23T17:36:57.124Z,12.10
2022-10-23T17:39:28.238Z,11.70
2022-10-23T17:41:55.596Z,10.80
2022-10-23T17:44:22.360Z,10.70
2022-10-23T17:46:52.789Z,10.60
2022-10-23T17:49:19.968Z,10.20
2022-10-23T17:51:52.000Z,10.40
2022-10-23T17:54:18.685Z,10.70
2022-10-23T17:56:45.481Z,11.10
2022-10-23T17:59:13.917Z,12.10
2022-10-23T18:01:44.328Z,11.40
2022-10-23T18:04:10.915Z,11.40
2022-10-23T18:06:43.689Z,11.00
2022-10-23T18:09:11.357Z,10.10
2022-10-23T18:11:45.208Z,9.80
2022-10-23T18:14:13.710Z,9.70
2022-10-23T18:16:40.317Z,10.20
2022-10-23T18:19:07.917Z,10.20
2022-10-23T18:21:35.284Z,9.30
2022-10-23T18:24:02.633Z,9.60
2022-10-23T18:26:31.535Z,9.10
2022-10-23T18:28:59.097Z,10.00
2022-10-23T18:31:29.505Z,10.00
2022-10-23T18:33:58.081Z,9.90
2022-10-23T18:36:40.035Z,10.50
2022-10-23T18:39:08.776Z,10.10
2022-10-23T18:41:38.559Z,10.50
2022-10-23T18:44:06.614Z,10.60
2022-10-23T18:46:33.653Z,10.70
2022-10-23T18:49:00.144Z,11.00
2022-10-23T18:51:29.814Z,10.50
2022-10-23T18:53:59.428Z,12.10
2022-10-23T18:56:27.137Z,11.60
2022-10-23T18:58:56.034Z,11.30
2022-10-23T19:01:24.312Z,12.40
2022-10-23T19:03:51.018Z,11.50
2022-10-23T19:06:18.946Z,12.30
2022-10-23T19:08:46.461Z,12.20
2022-10-23T19:11:15.253Z,11.20
2022-10-23T19:13:42.329Z,10.50
2022-10-23T19:16:17.537Z,9.80
2022-10-23T19:18:48.385Z,10.40
2022-10-23T19:21:18.404Z,10.10
2022-10-23T19:23:45.726Z,10.30
2022-10-23T19:26:12.893Z,11.20
2022-10-23T19:28:43.236Z,10.90
2022-10-23T19:31:10.673Z,10.40
2022-10-23T19:33:38.462Z,11.80
2022-10-23T19:36:07.910Z,11.10
2022-10-23T19:38:39.528Z,11.50
2022-10-23T19:41:06.051Z,12.00
2022-10-23T19:43:32.598Z,12.20
2022-10-23T19:46:03.928Z,11.90
2022-10-23T19:48:33.055Z,10.90
2022-10-23T19:50:59.581Z,12.00
2022-10-23T19:53:26.305Z,11.50
2022-10-23T19:56:02.331Z,11.10
2022-10-23T19:58:29.325Z,11.60
2022-10-23T20:00:56.152Z,12.20
2022-10-23T20:03:23.279Z,11.60
2022-10-23T20:05:49.889Z,11.80
2022-10-23T20:08:16.416Z,11.90
2022-10-23T20:10:45.265Z,12.10
2022-10-23T20:13:20.458Z,11.60
2022-10-23T20:15:48.578Z,11.90
2022-10-23T20:18:15.212Z,11.20
2022-10-23T20:20:41.979Z,11.20
2022-10-23T20:23:08.853Z,10.60
2022-10-23T20:25:35.357Z,10.10
2022-10-23T20:28:02.399Z,10.50
2022-10-23T20:30:28.990Z,11.00
2022-10-23T20:32:55.667Z,10.60
2022-10-23T20:35:22.750Z,10.40
2022-10-23T20:37:49.355Z,10.10
2022-10-23T20:40:16.258Z,10.50
2022-10-23T20:42:42.826Z,12.70
2022-10-23T20:45:09.955Z,14.80
2022-10-23T20:47:36.511Z,14.70
2022-10-23T20:50:03.286Z,14.00
2022-10-23T20:54:58.275Z,15.40
2022-10-23T20:57:24.798Z,16.40
2022-10-23T20:59:52.581Z,15.90
2022-10-23T21:02:19.306Z,16.80
2022-10-23T21:04:46.948Z,16.00
2022-10-23T21:07:13.510Z,15.50
2022-10-23T21:09:40.105Z,15.30
2022-10-23T21:12:07.719Z,16.30
2022-10-23T21:14:35.276Z,16.30
2022-10-23T21:17:02.366Z,16.20
2022-10-23T21:19:28.862Z,13.70
2022-10-23T21:21:55.452Z,13.50
2022-10-23T21:24:23.338Z,12.50
2022-10-23T21:26:51.172Z,11.90
2022-10-23T21:29:19.393Z,10.70
2022-10-23T21:31:55.617Z,11.20
2022-10-23T21:34:24.050Z,11.80
2022-10-23T21:37:12.527Z,11.50
2022-10-23T21:39:37.893Z,11.20
2022-10-23T21:42:04.658Z,13.00
2022-10-23T21:44:31.092Z,13.70
2022-10-23T21:46:57.624Z,13.90
2022-10-23T21:49:24.296Z,14.80
2022-10-23T21:51:50.753Z,15.30
2022-10-23T21:54:17.188Z,16.00
2022-10-23T21:56:46.608Z,16.40
2022-10-23T21:59:16.019Z,15.60
2022-10-23T22:01:45.307Z,16.30
2022-10-23T22:04:13.894Z,17.40
2022-10-23T22:06:42.225Z,16.60
2022-10-23T22:09:13.342Z,18.10
2022-10-23T22:11:40.796Z,17.50
2022-10-23T22:14:07.296Z,17.40
2022-10-23T22:16:33.786Z,18.20
2022-10-23T22:19:00.288Z,17.00
2022-10-23T22:21:28.757Z,16.10
2022-10-23T22:23:57.310Z,15.00
2022-10-23T22:26:29.090Z,16.10
2022-10-23T22:28:59.147Z,15.50
2022-10-23T22:31:29.386Z,15.10
2022-10-23T22:33:56.450Z,14.50
2022-10-23T22:36:24.400Z,14.30
2022-10-23T22:38:51.446Z,12.80
2022-10-23T22:41:18.329Z,13.90
2022-10-23T22:43:45.078Z,14.40
2022-10-23T22:46:14.902Z,15.00
2022-10-23T22:48:42.218Z,14.10
2022-10-23T22:51:11.464Z,14.60
2022-10-23T22:53:37.994Z,13.70
2022-10-23T22:56:07.822Z,13.30
2022-10-23T22:58:35.157Z,14.70
2022-10-23T23:01:07.616Z,16.20
2022-10-23T23:03:36.308Z,14.20
2022-10-23T23:06:05.631Z,15.10
2022-10-23T23:08:33.614Z,13.80
2022-10-23T23:11:00.681Z,13.70
2022-10-23T23:13:28.934Z,15.10
2022-10-23T23:15:56.420Z,13.40
2022-10-23T23:18:23.704Z,13.90
2022-10-23T23:20:50.465Z,13.80
2022-10-23T23:23:18.092Z,12.40
2022-10-23T23:25:48.148Z,11.90
2022-10-23T23:28:17.586Z,13.20
2022-10-23T23:33:11.806Z,14.90
2022-10-23T23:35:42.597Z,13.60
2022-10-23T23:38:10.359Z,12.50
2022-10-23T23:40:37.756Z,12.30
2022-10-23T23:43:04.676Z,13.30
2022-10-23T23:45:31.469Z,13.10
2022-10-23T23:47:58.818Z,12.70
2022-10-23T23:50:27.229Z,11.40
2022-10-23T23:52:54.145Z,11.80
2022-10-23T23:55:20.864Z,11.30
2022-10-23T23:57:47.615Z,11.80
